sensor_id;sensor_type;location;lat;lon;timestamp;temperature;humidity
24560;DHT22;12727;49.934;8.656;2024-03-25T00:00:11;7.20;99.90
24560;DHT22;12727;49.934;8.656;2024-03-25T00:02:40;7.20;99.90
24560;DHT22;12727;49.934;8.656;2024-03-25T00:05:07;7.10;99.90
24560;DHT22;12727;49.934;8.656;2024-03-25T00:07:37;7.00;99.90
24560;DHT22;12727;49.934;8.656;2024-03-25T00:10:03;7.00;99.90
24560;DHT22;12727;49.934;8.656;2024-03-25T00:12:29;7.00;99.90
24560;DHT22;12727;49.934;8.656;2024-03-25T00:14:54;6.90;99.90
24560;DHT22;12727;49.934;8.656;2024-03-25T00:17:20;7.00;99.90
24560;DHT22;12727;49.934;8.656;2024-03-25T00:19:46;6.90;99.90
24560;DHT22;12727;49.934;8.656;2024-03-25T00:22:18;7.00;99.90
24560;DHT22;12727;49.934;8.656;2024-03-25T00:24:45;6.90;99.90
24560;DHT22;12727;49.934;8.656;2024-03-25T00:27:12;7.00;99.90
24560;DHT22;12727;49.934;8.656;2024-03-25T00:29:37;7.00;99.90
24560;DHT22;12727;49.934;8.656;2024-03-25T00:32:03;6.90;99.90
24560;DHT22;12727;49.934;8.656;2024-03-25T00:34:29;6.90;99.90
24560;DHT22;12727;49.934;8.656;2024-03-25T00:36:54;6.90;99.90
24560;DHT22;12727;49.934;8.656;2024-03-25T00:39:20;6.90;99.90
24560;DHT22;12727;49.934;8.656;2024-03-25T00:41:47;6.90;99.90
24560;DHT22;12727;49.934;8.656;2024-03-25T00:44:12;6.90;99.90
24560;DHT22;12727;49.934;8.656;2024-03-25T00:46:38;6.90;99.90
24560;DHT22;12727;49.934;8.656;2024-03-25T00:49:03;6.90;99.90
24560;DHT22;12727;49.934;8.656;2024-03-25T00:51:29;7.00;99.90
24560;DHT22;12727;49.934;8.656;2024-03-25T00:53:54;7.00;99.90
24560;DHT22;12727;49.934;8.656;2024-03-25T00:56:20;7.00;99.90
24560;DHT22;12727;49.934;8.656;2024-03-25T00:58:46;7.00;99.90
24560;DHT22;12727;49.934;8.656;2024-03-25T01:01:11;7.00;99.90
24560;DHT22;12727;49.934;8.656;2024-03-25T01:03:37;6.90;99.90
24560;DHT22;12727;49.934;8.656;2024-03-25T01:06:03;6.90;99.90
24560;DHT22;12727;49.934;8.656;2024-03-25T01:08:29;6.80;99.90
24560;DHT22;12727;49.934;8.656;2024-03-25T01:10:55;6.70;99.90
24560;DHT22;12727;49.934;8.656;2024-03-25T01:13:21;6.80;99.90
24560;DHT22;12727;49.934;8.656;2024-03-25T01:15:46;6.90;99.90
24560;DHT22;12727;49.934;8.656;2024-03-25T01:18:12;6.90;99.90
24560;DHT22;12727;49.934;8.656;2024-03-25T01:20:38;6.90;99.90
24560;DHT22;12727;49.934;8.656;2024-03-25T01:23:04;6.90;99.90
24560;DHT22;12727;49.934;8.656;2024-03-25T01:25:30;6.80;99.90
24560;DHT22;12727;49.934;8.656;2024-03-25T01:27:56;6.80;99.90
24560;DHT22;12727;49.934;8.656;2024-03-25T01:30:22;6.80;99.90
24560;DHT22;12727;49.934;8.656;2024-03-25T01:32:48;6.70;99.90
24560;DHT22;12727;49.934;8.656;2024-03-25T01:35:14;6.70;99.90
24560;DHT22;12727;49.934;8.656;2024-03-25T01:37:41;6.80;99.90
24560;DHT22;12727;49.934;8.656;2024-03-25T01:40:07;6.80;99.90
24560;DHT22;12727;49.934;8.656;2024-03-25T01:42:35;6.90;99.90
24560;DHT22;12727;49.934;8.656;2024-03-25T01:45:01;6.90;99.90
24560;DHT22;12727;49.934;8.656;2024-03-25T01:47:29;6.80;99.90
24560;DHT22;12727;49.934;8.656;2024-03-25T01:49:58;6.70;99.90
24560;DHT22;12727;49.934;8.656;2024-03-25T01:52:24;6.70;99.90
24560;DHT22;12727;49.934;8.656;2024-03-25T01:54:51;6.70;99.90
24560;DHT22;12727;49.934;8.656;2024-03-25T01:57:17;6.70;99.90
24560;DHT22;12727;49.934;8.656;2024-03-25T01:59:44;6.70;99.90
24560;DHT22;12727;49.934;8.656;2024-03-25T02:02:09;6.80;99.90
24560;DHT22;12727;49.934;8.656;2024-03-25T02:04:37;6.80;99.90
24560;DHT22;12727;49.934;8.656;2024-03-25T02:07:03;6.80;99.90
24560;DHT22;12727;49.934;8.656;2024-03-25T02:09:29;6.70;99.90
24560;DHT22;12727;49.934;8.656;2024-03-25T02:11:55;6.60;99.90
24560;DHT22;12727;49.934;8.656;2024-03-25T02:14:21;6.60;99.90
24560;DHT22;12727;49.934;8.656;2024-03-25T02:16:46;6.50;99.90
24560;DHT22;12727;49.934;8.656;2024-03-25T02:19:13;6.50;99.90
24560;DHT22;12727;49.934;8.656;2024-03-25T02:21:40;6.40;99.90
24560;DHT22;12727;49.934;8.656;2024-03-25T02:24:09;6.40;99.90
24560;DHT22;12727;49.934;8.656;2024-03-25T02:26:35;6.40;99.90
24560;DHT22;12727;49.934;8.656;2024-03-25T02:29:00;6.40;99.90
24560;DHT22;12727;49.934;8.656;2024-03-25T02:31:26;6.40;99.90
24560;DHT22;12727;49.934;8.656;2024-03-25T02:33:52;6.30;99.90
24560;DHT22;12727;49.934;8.656;2024-03-25T02:36:17;6.40;99.90
24560;DHT22;12727;49.934;8.656;2024-03-25T02:38:43;6.40;99.90
24560;DHT22;12727;49.934;8.656;2024-03-25T02:41:09;6.50;99.90
24560;DHT22;12727;49.934;8.656;2024-03-25T02:43:35;6.50;99.90
24560;DHT22;12727;49.934;8.656;2024-03-25T02:46:00;6.50;99.90
24560;DHT22;12727;49.934;8.656;2024-03-25T02:48:26;6.40;99.90
24560;DHT22;12727;49.934;8.656;2024-03-25T02:50:52;6.40;99.90
24560;DHT22;12727;49.934;8.656;2024-03-25T02:53:17;6.30;99.90
24560;DHT22;12727;49.934;8.656;2024-03-25T02:55:43;6.30;99.90
24560;DHT22;12727;49.934;8.656;2024-03-25T02:58:09;6.40;99.90
24560;DHT22;12727;49.934;8.656;2024-03-25T03:00:34;6.40;99.90
24560;DHT22;12727;49.934;8.656;2024-03-25T03:03:00;6.40;99.90
24560;DHT22;12727;49.934;8.656;2024-03-25T03:05:25;6.40;99.90
24560;DHT22;12727;49.934;8.656;2024-03-25T03:07:51;6.40;99.90
24560;DHT22;12727;49.934;8.656;2024-03-25T03:10:16;6.40;99.90
24560;DHT22;12727;49.934;8.656;2024-03-25T03:12:42;6.30;99.90
24560;DHT22;12727;49.934;8.656;2024-03-25T03:15:07;6.30;99.90
24560;DHT22;12727;49.934;8.656;2024-03-25T03:17:33;6.30;99.90
24560;DHT22;12727;49.934;8.656;2024-03-25T03:19:58;6.30;99.90
24560;DHT22;12727;49.934;8.656;2024-03-25T03:22:24;6.20;99.90
24560;DHT22;12727;49.934;8.656;2024-03-25T03:24:49;6.20;99.90
24560;DHT22;12727;49.934;8.656;2024-03-25T03:27:15;6.10;99.90
24560;DHT22;12727;49.934;8.656;2024-03-25T03:29:40;6.10;99.90
24560;DHT22;12727;49.934;8.656;2024-03-25T03:32:06;6.20;99.90
24560;DHT22;12727;49.934;8.656;2024-03-25T03:34:32;6.20;99.90
24560;DHT22;12727;49.934;8.656;2024-03-25T03:36:57;6.10;99.90
24560;DHT22;12727;49.934;8.656;2024-03-25T03:39:23;6.10;99.90
24560;DHT22;12727;49.934;8.656;2024-03-25T03:41:48;6.00;99.90
24560;DHT22;12727;49.934;8.656;2024-03-25T03:44:14;6.00;99.90
24560;DHT22;12727;49.934;8.656;2024-03-25T03:46:40;5.90;99.90
24560;DHT22;12727;49.934;8.656;2024-03-25T03:49:06;5.80;99.90
24560;DHT22;12727;49.934;8.656;2024-03-25T03:51:32;5.80;99.90
24560;DHT22;12727;49.934;8.656;2024-03-25T03:53:57;5.80;99.90
24560;DHT22;12727;49.934;8.656;2024-03-25T03:56:23;5.80;99.90
24560;DHT22;12727;49.934;8.656;2024-03-25T03:58:48;5.90;99.90
24560;DHT22;12727;49.934;8.656;2024-03-25T04:01:18;5.90;99.90
24560;DHT22;12727;49.934;8.656;2024-03-25T04:03:44;5.90;99.90
24560;DHT22;12727;49.934;8.656;2024-03-25T04:06:13;6.00;99.90
24560;DHT22;12727;49.934;8.656;2024-03-25T04:08:39;6.00;99.90
24560;DHT22;12727;49.934;8.656;2024-03-25T04:11:06;5.90;99.90
24560;DHT22;12727;49.934;8.656;2024-03-25T04:13:33;5.80;99.90
24560;DHT22;12727;49.934;8.656;2024-03-25T04:16:03;5.80;99.90
24560;DHT22;12727;49.934;8.656;2024-03-25T04:18:30;5.70;99.90
24560;DHT22;12727;49.934;8.656;2024-03-25T04:20:56;5.70;99.90
24560;DHT22;12727;49.934;8.656;2024-03-25T04:23:21;5.70;99.90
24560;DHT22;12727;49.934;8.656;2024-03-25T04:25:47;5.70;99.90
24560;DHT22;12727;49.934;8.656;2024-03-25T04:28:13;5.70;99.90
24560;DHT22;12727;49.934;8.656;2024-03-25T04:30:39;5.70;99.90
24560;DHT22;12727;49.934;8.656;2024-03-25T04:33:04;5.70;99.90
24560;DHT22;12727;49.934;8.656;2024-03-25T04:35:30;5.80;99.90
24560;DHT22;12727;49.934;8.656;2024-03-25T04:37:55;5.70;99.90
24560;DHT22;12727;49.934;8.656;2024-03-25T04:40:21;5.70;99.90
24560;DHT22;12727;49.934;8.656;2024-03-25T04:42:47;5.60;99.90
24560;DHT22;12727;49.934;8.656;2024-03-25T04:45:13;5.40;99.90
24560;DHT22;12727;49.934;8.656;2024-03-25T04:47:39;5.30;99.90
24560;DHT22;12727;49.934;8.656;2024-03-25T04:50:06;5.20;99.90
24560;DHT22;12727;49.934;8.656;2024-03-25T04:52:32;5.10;99.90
24560;DHT22;12727;49.934;8.656;2024-03-25T04:54:57;5.00;99.90
24560;DHT22;12727;49.934;8.656;2024-03-25T04:57:24;4.90;99.90
24560;DHT22;12727;49.934;8.656;2024-03-25T04:59:49;4.90;99.90
24560;DHT22;12727;49.934;8.656;2024-03-25T05:02:15;4.80;99.90
24560;DHT22;12727;49.934;8.656;2024-03-25T05:04:40;4.70;99.90
24560;DHT22;12727;49.934;8.656;2024-03-25T05:07:06;4.60;99.90
24560;DHT22;12727;49.934;8.656;2024-03-25T05:09:31;4.50;99.90
24560;DHT22;12727;49.934;8.656;2024-03-25T05:11:57;4.50;99.90
24560;DHT22;12727;49.934;8.656;2024-03-25T05:14:23;4.40;99.90
24560;DHT22;12727;49.934;8.656;2024-03-25T05:16:48;4.30;99.90
24560;DHT22;12727;49.934;8.656;2024-03-25T05:19:15;4.30;99.90
24560;DHT22;12727;49.934;8.656;2024-03-25T05:21:41;4.20;99.90
24560;DHT22;12727;49.934;8.656;2024-03-25T05:24:06;4.20;99.90
24560;DHT22;12727;49.934;8.656;2024-03-25T05:26:32;4.20;99.90
24560;DHT22;12727;49.934;8.656;2024-03-25T05:28:58;4.10;99.90
24560;DHT22;12727;49.934;8.656;2024-03-25T05:31:24;4.00;99.90
24560;DHT22;12727;49.934;8.656;2024-03-25T05:33:50;4.00;99.90
24560;DHT22;12727;49.934;8.656;2024-03-25T05:36:15;3.90;99.90
24560;DHT22;12727;49.934;8.656;2024-03-25T05:38:41;3.90;99.90
24560;DHT22;12727;49.934;8.656;2024-03-25T05:41:10;3.90;99.90
24560;DHT22;12727;49.934;8.656;2024-03-25T05:43:36;3.90;99.90
24560;DHT22;12727;49.934;8.656;2024-03-25T05:46:02;3.90;99.90
24560;DHT22;12727;49.934;8.656;2024-03-25T05:48:28;4.00;99.90
24560;DHT22;12727;49.934;8.656;2024-03-25T05:51:01;4.10;99.90
24560;DHT22;12727;49.934;8.656;2024-03-25T05:53:27;4.20;99.90
24560;DHT22;12727;49.934;8.656;2024-03-25T05:55:53;4.40;99.90
24560;DHT22;12727;49.934;8.656;2024-03-25T05:58:18;4.50;99.90
24560;DHT22;12727;49.934;8.656;2024-03-25T06:00:47;4.60;99.90
24560;DHT22;12727;49.934;8.656;2024-03-25T06:03:12;4.70;99.90
24560;DHT22;12727;49.934;8.656;2024-03-25T06:05:38;4.70;99.90
24560;DHT22;12727;49.934;8.656;2024-03-25T06:08:04;4.80;99.90
24560;DHT22;12727;49.934;8.656;2024-03-25T06:10:34;4.80;99.90
24560;DHT22;12727;49.934;8.656;2024-03-25T06:13:00;4.80;99.90
24560;DHT22;12727;49.934;8.656;2024-03-25T06:15:25;4.80;99.90
24560;DHT22;12727;49.934;8.656;2024-03-25T06:17:51;4.80;99.90
24560;DHT22;12727;49.934;8.656;2024-03-25T06:20:16;4.80;99.90
24560;DHT22;12727;49.934;8.656;2024-03-25T06:22:42;4.80;99.90
24560;DHT22;12727;49.934;8.656;2024-03-25T06:25:08;4.90;99.90
24560;DHT22;12727;49.934;8.656;2024-03-25T06:27:33;4.90;99.90
24560;DHT22;12727;49.934;8.656;2024-03-25T06:29:59;4.90;99.90
24560;DHT22;12727;49.934;8.656;2024-03-25T06:32:44;5.00;99.90
24560;DHT22;12727;49.934;8.656;2024-03-25T06:35:29;5.20;99.90
24560;DHT22;12727;49.934;8.656;2024-03-25T06:37:54;5.20;99.90
24560;DHT22;12727;49.934;8.656;2024-03-25T06:40:20;5.30;99.90
24560;DHT22;12727;49.934;8.656;2024-03-25T06:42:47;5.30;99.90
24560;DHT22;12727;49.934;8.656;2024-03-25T06:45:13;5.50;99.90
24560;DHT22;12727;49.934;8.656;2024-03-25T06:47:41;5.60;99.90
24560;DHT22;12727;49.934;8.656;2024-03-25T06:50:07;5.80;99.90
24560;DHT22;12727;49.934;8.656;2024-03-25T06:52:32;6.00;99.90
24560;DHT22;12727;49.934;8.656;2024-03-25T06:54:58;6.20;99.90
24560;DHT22;12727;49.934;8.656;2024-03-25T06:57:24;6.40;99.90
24560;DHT22;12727;49.934;8.656;2024-03-25T06:59:49;6.60;99.90
24560;DHT22;12727;49.934;8.656;2024-03-25T07:02:15;6.80;99.90
24560;DHT22;12727;49.934;8.656;2024-03-25T07:04:40;7.00;99.90
24560;DHT22;12727;49.934;8.656;2024-03-25T07:07:06;7.30;99.90
24560;DHT22;12727;49.934;8.656;2024-03-25T07:09:33;7.60;99.90
24560;DHT22;12727;49.934;8.656;2024-03-25T07:11:59;7.90;99.90
24560;DHT22;12727;49.934;8.656;2024-03-25T07:14:25;8.20;99.90
24560;DHT22;12727;49.934;8.656;2024-03-25T07:16:50;8.30;99.90
24560;DHT22;12727;49.934;8.656;2024-03-25T07:19:16;8.40;99.90
24560;DHT22;12727;49.934;8.656;2024-03-25T07:21:41;8.70;99.90
24560;DHT22;12727;49.934;8.656;2024-03-25T07:24:07;9.00;99.90
24560;DHT22;12727;49.934;8.656;2024-03-25T07:26:33;9.30;99.90
24560;DHT22;12727;49.934;8.656;2024-03-25T07:29:01;9.30;99.90
24560;DHT22;12727;49.934;8.656;2024-03-25T07:31:27;9.40;99.90
24560;DHT22;12727;49.934;8.656;2024-03-25T07:33:52;9.40;99.90
24560;DHT22;12727;49.934;8.656;2024-03-25T07:36:18;9.50;99.90
24560;DHT22;12727;49.934;8.656;2024-03-25T07:38:44;9.80;99.90
24560;DHT22;12727;49.934;8.656;2024-03-25T07:41:09;9.90;99.90
24560;DHT22;12727;49.934;8.656;2024-03-25T07:43:36;10.00;99.90
24560;DHT22;12727;49.934;8.656;2024-03-25T07:46:04;10.30;99.90
24560;DHT22;12727;49.934;8.656;2024-03-25T07:48:30;10.10;99.60
24560;DHT22;12727;49.934;8.656;2024-03-25T07:50:56;10.20;99.90
24560;DHT22;12727;49.934;8.656;2024-03-25T07:53:21;10.30;99.50
24560;DHT22;12727;49.934;8.656;2024-03-25T07:55:47;10.30;99.10
24560;DHT22;12727;49.934;8.656;2024-03-25T07:58:12;10.40;98.70
24560;DHT22;12727;49.934;8.656;2024-03-25T08:00:41;10.50;99.00
24560;DHT22;12727;49.934;8.656;2024-03-25T08:03:07;10.50;98.20
24560;DHT22;12727;49.934;8.656;2024-03-25T08:05:36;10.60;98.40
24560;DHT22;12727;49.934;8.656;2024-03-25T08:08:02;11.00;97.90
24560;DHT22;12727;49.934;8.656;2024-03-25T08:10:29;11.30;97.40
24560;DHT22;12727;49.934;8.656;2024-03-25T08:12:54;11.50;97.00
24560;DHT22;12727;49.934;8.656;2024-03-25T08:15:20;11.90;96.20
24560;DHT22;12727;49.934;8.656;2024-03-25T08:17:45;12.00;95.60
24560;DHT22;12727;49.934;8.656;2024-03-25T08:20:11;12.00;95.90
24560;DHT22;12727;49.934;8.656;2024-03-25T08:22:39;12.30;95.60
24560;DHT22;12727;49.934;8.656;2024-03-25T08:25:05;12.50;94.50
24560;DHT22;12727;49.934;8.656;2024-03-25T08:27:30;12.70;94.10
24560;DHT22;12727;49.934;8.656;2024-03-25T08:29:56;13.00;93.40
24560;DHT22;12727;49.934;8.656;2024-03-25T08:32:21;13.20;92.90
24560;DHT22;12727;49.934;8.656;2024-03-25T08:34:47;12.70;91.60
24560;DHT22;12727;49.934;8.656;2024-03-25T08:37:12;12.40;91.90
24560;DHT22;12727;49.934;8.656;2024-03-25T08:39:38;12.50;92.00
24560;DHT22;12727;49.934;8.656;2024-03-25T08:42:04;12.90;92.20
24560;DHT22;12727;49.934;8.656;2024-03-25T08:44:29;13.40;91.00
24560;DHT22;12727;49.934;8.656;2024-03-25T08:46:55;13.60;90.30
24560;DHT22;12727;49.934;8.656;2024-03-25T08:49:21;13.70;90.20
24560;DHT22;12727;49.934;8.656;2024-03-25T08:51:46;13.70;89.20
24560;DHT22;12727;49.934;8.656;2024-03-25T08:54:12;13.70;88.60
24560;DHT22;12727;49.934;8.656;2024-03-25T08:56:38;13.60;89.50
24560;DHT22;12727;49.934;8.656;2024-03-25T08:59:03;13.70;87.50
24560;DHT22;12727;49.934;8.656;2024-03-25T09:01:29;13.80;87.50
24560;DHT22;12727;49.934;8.656;2024-03-25T09:03:56;13.70;86.20
24560;DHT22;12727;49.934;8.656;2024-03-25T09:06:21;13.40;86.20
24560;DHT22;12727;49.934;8.656;2024-03-25T09:08:47;13.50;86.90
24560;DHT22;12727;49.934;8.656;2024-03-25T09:11:31;13.30;85.90
24560;DHT22;12727;49.934;8.656;2024-03-25T09:13:57;13.40;85.70
24560;DHT22;12727;49.934;8.656;2024-03-25T09:16:23;13.50;84.80
24560;DHT22;12727;49.934;8.656;2024-03-25T09:18:49;13.00;82.40
24560;DHT22;12727;49.934;8.656;2024-03-25T09:21:16;13.30;83.60
24560;DHT22;12727;49.934;8.656;2024-03-25T09:23:41;13.30;82.40
24560;DHT22;12727;49.934;8.656;2024-03-25T09:26:07;12.90;82.10
24560;DHT22;12727;49.934;8.656;2024-03-25T09:28:33;12.60;83.30
24560;DHT22;12727;49.934;8.656;2024-03-25T09:30:58;12.60;83.90
24560;DHT22;12727;49.934;8.656;2024-03-25T09:33:24;12.10;84.30
24560;DHT22;12727;49.934;8.656;2024-03-25T09:35:52;12.00;85.30
24560;DHT22;12727;49.934;8.656;2024-03-25T09:38:17;12.80;83.10
24560;DHT22;12727;49.934;8.656;2024-03-25T09:40:43;13.10;80.30
24560;DHT22;12727;49.934;8.656;2024-03-25T09:43:16;13.70;79.00
24560;DHT22;12727;49.934;8.656;2024-03-25T09:45:47;13.60;78.20
24560;DHT22;12727;49.934;8.656;2024-03-25T09:48:15;13.80;77.70
24560;DHT22;12727;49.934;8.656;2024-03-25T09:50:43;14.10;77.20
24560;DHT22;12727;49.934;8.656;2024-03-25T09:53:09;14.40;76.30
24560;DHT22;12727;49.934;8.656;2024-03-25T09:55:34;14.60;75.60
24560;DHT22;12727;49.934;8.656;2024-03-25T09:58:02;14.50;73.80
24560;DHT22;12727;49.934;8.656;2024-03-25T10:00:27;14.60;73.50
24560;DHT22;12727;49.934;8.656;2024-03-25T10:02:54;14.90;73.40
24560;DHT22;12727;49.934;8.656;2024-03-25T10:05:20;15.00;73.40
24560;DHT22;12727;49.934;8.656;2024-03-25T10:07:45;15.10;72.60
24560;DHT22;12727;49.934;8.656;2024-03-25T10:10:11;15.40;71.40
24560;DHT22;12727;49.934;8.656;2024-03-25T10:12:37;15.50;69.30
24560;DHT22;12727;49.934;8.656;2024-03-25T10:15:03;15.30;69.20
24560;DHT22;12727;49.934;8.656;2024-03-25T10:17:32;15.50;69.20
24560;DHT22;12727;49.934;8.656;2024-03-25T10:19:58;15.80;69.20
24560;DHT22;12727;49.934;8.656;2024-03-25T10:22:24;16.30;66.90
24560;DHT22;12727;49.934;8.656;2024-03-25T10:24:49;16.80;66.50
24560;DHT22;12727;49.934;8.656;2024-03-25T10:27:21;16.90;64.60
24560;DHT22;12727;49.934;8.656;2024-03-25T10:29:56;16.70;63.90
24560;DHT22;12727;49.934;8.656;2024-03-25T10:32:22;15.80;63.60
24560;DHT22;12727;49.934;8.656;2024-03-25T10:34:53;15.90;65.30
24560;DHT22;12727;49.934;8.656;2024-03-25T10:37:19;15.60;64.10
24560;DHT22;12727;49.934;8.656;2024-03-25T10:39:48;15.20;64.90
24560;DHT22;12727;49.934;8.656;2024-03-25T10:42:18;15.20;64.70
24560;DHT22;12727;49.934;8.656;2024-03-25T10:44:45;15.30;64.90
24560;DHT22;12727;49.934;8.656;2024-03-25T10:47:23;15.50;64.70
24560;DHT22;12727;49.934;8.656;2024-03-25T10:50:01;15.60;63.60
24560;DHT22;12727;49.934;8.656;2024-03-25T10:52:30;15.80;62.50
24560;DHT22;12727;49.934;8.656;2024-03-25T10:54:58;15.60;61.90
24560;DHT22;12727;49.934;8.656;2024-03-25T10:57:25;15.50;62.80
24560;DHT22;12727;49.934;8.656;2024-03-25T10:59:51;15.60;61.50
24560;DHT22;12727;49.934;8.656;2024-03-25T11:02:17;15.50;62.10
24560;DHT22;12727;49.934;8.656;2024-03-25T11:04:44;16.10;60.90
24560;DHT22;12727;49.934;8.656;2024-03-25T11:07:14;16.10;58.20
24560;DHT22;12727;49.934;8.656;2024-03-25T11:09:41;16.00;58.70
24560;DHT22;12727;49.934;8.656;2024-03-25T11:12:10;15.90;59.00
24560;DHT22;12727;49.934;8.656;2024-03-25T11:14:36;15.90;58.90
24560;DHT22;12727;49.934;8.656;2024-03-25T11:17:17;15.70;58.60
24560;DHT22;12727;49.934;8.656;2024-03-25T11:19:42;15.20;60.20
24560;DHT22;12727;49.934;8.656;2024-03-25T11:22:10;14.50;61.40
24560;DHT22;12727;49.934;8.656;2024-03-25T11:24:36;14.10;63.10
24560;DHT22;12727;49.934;8.656;2024-03-25T11:27:06;13.50;63.80
24560;DHT22;12727;49.934;8.656;2024-03-25T11:29:32;13.20;65.60
24560;DHT22;12727;49.934;8.656;2024-03-25T11:32:01;13.20;65.70
24560;DHT22;12727;49.934;8.656;2024-03-25T11:34:28;13.00;65.80
24560;DHT22;12727;49.934;8.656;2024-03-25T11:36:54;13.20;66.40
24560;DHT22;12727;49.934;8.656;2024-03-25T11:39:22;13.00;66.10
24560;DHT22;12727;49.934;8.656;2024-03-25T11:41:48;12.90;66.50
24560;DHT22;12727;49.934;8.656;2024-03-25T11:44:14;12.80;65.50
24560;DHT22;12727;49.934;8.656;2024-03-25T11:46:40;12.50;65.40
24560;DHT22;12727;49.934;8.656;2024-03-25T11:49:07;12.40;67.90
24560;DHT22;12727;49.934;8.656;2024-03-25T11:51:36;12.50;67.70
24560;DHT22;12727;49.934;8.656;2024-03-25T11:54:04;12.20;66.50
24560;DHT22;12727;49.934;8.656;2024-03-25T11:56:31;12.10;68.00
24560;DHT22;12727;49.934;8.656;2024-03-25T11:58:58;12.00;68.00
24560;DHT22;12727;49.934;8.656;2024-03-25T12:01:24;12.10;69.10
24560;DHT22;12727;49.934;8.656;2024-03-25T12:03:49;12.20;69.30
24560;DHT22;12727;49.934;8.656;2024-03-25T12:06:15;12.20;68.60
24560;DHT22;12727;49.934;8.656;2024-03-25T12:08:40;12.20;68.60
24560;DHT22;12727;49.934;8.656;2024-03-25T12:11:26;12.00;67.80
24560;DHT22;12727;49.934;8.656;2024-03-25T12:13:51;11.90;68.50
24560;DHT22;12727;49.934;8.656;2024-03-25T12:16:17;12.10;69.10
24560;DHT22;12727;49.934;8.656;2024-03-25T12:18:43;12.20;68.60
24560;DHT22;12727;49.934;8.656;2024-03-25T12:21:11;12.30;69.00
24560;DHT22;12727;49.934;8.656;2024-03-25T12:23:36;12.30;68.80
24560;DHT22;12727;49.934;8.656;2024-03-25T12:26:02;12.20;67.20
24560;DHT22;12727;49.934;8.656;2024-03-25T12:28:30;11.90;67.90
24560;DHT22;12727;49.934;8.656;2024-03-25T12:30:56;11.70;67.50
24560;DHT22;12727;49.934;8.656;2024-03-25T12:33:25;11.60;69.50
24560;DHT22;12727;49.934;8.656;2024-03-25T12:35:52;11.60;68.60
24560;DHT22;12727;49.934;8.656;2024-03-25T12:38:27;11.50;69.30
24560;DHT22;12727;49.934;8.656;2024-03-25T12:40:54;11.60;69.90
24560;DHT22;12727;49.934;8.656;2024-03-25T12:43:19;11.80;68.90
24560;DHT22;12727;49.934;8.656;2024-03-25T12:45:45;11.70;68.20
24560;DHT22;12727;49.934;8.656;2024-03-25T12:48:11;11.70;68.00
24560;DHT22;12727;49.934;8.656;2024-03-25T12:50:37;11.50;67.10
24560;DHT22;12727;49.934;8.656;2024-03-25T12:53:03;11.40;67.50
24560;DHT22;12727;49.934;8.656;2024-03-25T12:55:31;11.40;67.00
24560;DHT22;12727;49.934;8.656;2024-03-25T12:57:57;11.30;66.80
24560;DHT22;12727;49.934;8.656;2024-03-25T13:00:22;11.20;65.90
24560;DHT22;12727;49.934;8.656;2024-03-25T13:02:49;11.20;64.80
24560;DHT22;12727;49.934;8.656;2024-03-25T13:05:15;11.00;61.30
24560;DHT22;12727;49.934;8.656;2024-03-25T13:07:41;10.80;61.80
24560;DHT22;12727;49.934;8.656;2024-03-25T13:10:07;10.80;60.90
24560;DHT22;12727;49.934;8.656;2024-03-25T13:12:33;10.80;62.70
24560;DHT22;12727;49.934;8.656;2024-03-25T13:14:58;10.90;63.00
24560;DHT22;12727;49.934;8.656;2024-03-25T13:17:24;10.90;62.30
24560;DHT22;12727;49.934;8.656;2024-03-25T13:19:50;11.00;62.30
24560;DHT22;12727;49.934;8.656;2024-03-25T13:22:16;11.00;60.30
24560;DHT22;12727;49.934;8.656;2024-03-25T13:24:42;11.00;60.80
24560;DHT22;12727;49.934;8.656;2024-03-25T13:27:07;11.10;60.40
24560;DHT22;12727;49.934;8.656;2024-03-25T13:29:33;11.20;61.40
24560;DHT22;12727;49.934;8.656;2024-03-25T13:32:01;11.10;63.70
24560;DHT22;12727;49.934;8.656;2024-03-25T13:34:27;11.10;64.60
24560;DHT22;12727;49.934;8.656;2024-03-25T13:36:52;11.30;62.00
24560;DHT22;12727;49.934;8.656;2024-03-25T13:39:18;11.20;59.60
24560;DHT22;12727;49.934;8.656;2024-03-25T13:41:44;11.20;59.70
24560;DHT22;12727;49.934;8.656;2024-03-25T13:44:11;11.20;60.90
24560;DHT22;12727;49.934;8.656;2024-03-25T13:46:36;11.20;62.00
24560;DHT22;12727;49.934;8.656;2024-03-25T13:49:02;11.30;62.90
24560;DHT22;12727;49.934;8.656;2024-03-25T13:51:27;11.30;61.40
24560;DHT22;12727;49.934;8.656;2024-03-25T13:53:53;11.40;62.30
24560;DHT22;12727;49.934;8.656;2024-03-25T13:56:19;11.30;62.70
24560;DHT22;12727;49.934;8.656;2024-03-25T13:58:44;11.40;64.10
24560;DHT22;12727;49.934;8.656;2024-03-25T14:01:10;11.70;64.50
24560;DHT22;12727;49.934;8.656;2024-03-25T14:03:36;11.70;62.70
24560;DHT22;12727;49.934;8.656;2024-03-25T14:06:04;11.70;62.80
24560;DHT22;12727;49.934;8.656;2024-03-25T14:08:29;11.60;62.20
24560;DHT22;12727;49.934;8.656;2024-03-25T14:10:59;11.40;62.60
24560;DHT22;12727;49.934;8.656;2024-03-25T14:13:25;11.40;63.50
24560;DHT22;12727;49.934;8.656;2024-03-25T14:15:51;11.40;63.70
24560;DHT22;12727;49.934;8.656;2024-03-25T14:18:16;11.50;62.60
24560;DHT22;12727;49.934;8.656;2024-03-25T14:20:43;11.70;62.70
24560;DHT22;12727;49.934;8.656;2024-03-25T14:23:18;11.80;62.80
24560;DHT22;12727;49.934;8.656;2024-03-25T14:25:44;11.80;62.30
24560;DHT22;12727;49.934;8.656;2024-03-25T14:28:10;11.80;62.30
24560;DHT22;12727;49.934;8.656;2024-03-25T14:30:36;11.70;62.20
24560;DHT22;12727;49.934;8.656;2024-03-25T14:33:01;11.90;63.50
24560;DHT22;12727;49.934;8.656;2024-03-25T14:35:27;12.10;63.30
24560;DHT22;12727;49.934;8.656;2024-03-25T14:37:52;12.00;62.80
24560;DHT22;12727;49.934;8.656;2024-03-25T14:40:18;12.00;62.80
24560;DHT22;12727;49.934;8.656;2024-03-25T14:42:44;11.90;61.30
24560;DHT22;12727;49.934;8.656;2024-03-25T14:45:09;11.90;60.90
24560;DHT22;12727;49.934;8.656;2024-03-25T14:47:35;11.90;60.40
24560;DHT22;12727;49.934;8.656;2024-03-25T14:50:01;11.80;59.90
24560;DHT22;12727;49.934;8.656;2024-03-25T14:52:26;11.70;60.60
24560;DHT22;12727;49.934;8.656;2024-03-25T14:54:52;11.90;60.40
24560;DHT22;12727;49.934;8.656;2024-03-25T14:57:18;11.90;58.60
24560;DHT22;12727;49.934;8.656;2024-03-25T14:59:43;11.80;58.90
24560;DHT22;12727;49.934;8.656;2024-03-25T15:02:09;11.80;56.70
24560;DHT22;12727;49.934;8.656;2024-03-25T15:04:38;11.80;56.70
24560;DHT22;12727;49.934;8.656;2024-03-25T15:07:10;11.80;57.20
24560;DHT22;12727;49.934;8.656;2024-03-25T15:09:35;11.80;56.90
24560;DHT22;12727;49.934;8.656;2024-03-25T15:12:01;11.90;57.70
24560;DHT22;12727;49.934;8.656;2024-03-25T15:14:30;11.90;57.70
24560;DHT22;12727;49.934;8.656;2024-03-25T15:16:59;11.90;58.70
24560;DHT22;12727;49.934;8.656;2024-03-25T15:19:25;11.90;57.40
24560;DHT22;12727;49.934;8.656;2024-03-25T15:21:51;11.70;57.90
24560;DHT22;12727;49.934;8.656;2024-03-25T15:24:16;11.80;59.20
24560;DHT22;12727;49.934;8.656;2024-03-25T15:26:42;11.70;58.80
24560;DHT22;12727;49.934;8.656;2024-03-25T15:29:08;11.70;59.60
24560;DHT22;12727;49.934;8.656;2024-03-25T15:31:33;11.70;59.90